メインページ
METAR-TAF:

METAR-TAF

空港 :

ドバイ国際空港

ドバイ, アラブ首長国連邦

緯度: 25-15-10N, 経度: 055-21-52E, 海抜: 8m

現時点の気象観測

当レポートは12分前の06:23(UTC)に作成
北/北東の風 11kt、北/北西から北東の間で変化する
気温 26°C
湿度 58%
気圧 1018 hPa
視程: 9000m

METAR: OMDB 150623Z 02011KT 340V050 9000 NSC 26/17 Q1018 NOSIG

時間: 10:35 (06:35 UTC)

予報

当レポートは1時間37分前の04:58(UTC)に作成
予報は15日の 06時(UTC)から 16日の 12時(UTC)まで有効
東/北東の風 5kt
視程: 8000m
15日の 09時(UTC)から 15日の 11時(UTC)まで徐々に
の風 14kt
確率 30% :
15日の 11時(UTC)から 16日の 05時(UTC)まで一時的に
変向風 15kt、最大25ktの突風を伴う
視程: 4000m
高度4000ftの雲はほとんどない, 塔状積雲.
にわか雨
15日の 17時(UTC)から 15日の 19時(UTC)まで徐々に
の風 7kt
16日の 03時(UTC)から 16日の 05時(UTC)まで徐々に
南東の風 10kt
16日の 10時(UTC)から 16日の 12時(UTC)まで徐々に
の風 12kt

TAF: OMDB 150458Z 1506/1612 07005KT 8000 NSC BECMG 1509/1511 36014KT PROB30 TEMPO 1511/1605 VRB15G25KT 4000 SHRA FEW040TCU BECMG 1517/1519 08007KT BECMG 1603/1605 14010KT BECMG 1610/1612 01012KT

4,000以上の空港の気象観測と天気予報(METAR報とTAF報)

利用可能な観測所は地図上に黄色い丸と赤い丸で示す。

丸の上にカーソルを重ねると観測所名を参照できる。

次にクリックすると気象観測と天気予報を参照できる。

マップの切り替え:黒色「×」印の緑ボタンをクリックして拡大、「-」印の緑ボタンをクリックして縮小、緑色の三角印をクリックして隣りの地図に切り替え


METAR-TAF: